createdAt,value
2018-12-26T00:00:08.039Z,22.70
2018-12-26T00:02:37.635Z,23.00
2018-12-26T00:05:06.862Z,22.40
2018-12-26T00:07:36.900Z,20.50
2018-12-26T00:10:06.480Z,20.63
2018-12-26T00:12:36.312Z,21.80
2018-12-26T00:15:05.905Z,20.93
2018-12-26T00:17:35.402Z,23.20
2018-12-26T00:20:05.146Z,22.40
2018-12-26T00:22:35.826Z,22.97
2018-12-26T00:25:05.626Z,25.00
2018-12-26T00:27:35.255Z,25.43
2018-12-26T00:30:04.852Z,24.57
2018-12-26T00:32:34.331Z,25.80
2018-12-26T00:35:03.809Z,25.53
2018-12-26T00:37:33.339Z,25.37
2018-12-26T00:40:02.845Z,26.03
2018-12-26T00:42:32.337Z,24.20
2018-12-26T00:45:01.793Z,24.87
2018-12-26T00:47:31.549Z,23.90
2018-12-26T00:50:00.771Z,25.10
2018-12-26T00:52:29.993Z,23.83
2018-12-26T00:54:59.471Z,24.30
2018-12-26T00:57:28.715Z,23.73
2018-12-26T00:59:58.184Z,24.20
2018-12-26T01:02:27.741Z,23.67
2018-12-26T01:04:57.497Z,23.97
2018-12-26T01:07:27.652Z,22.10
2018-12-26T01:09:57.119Z,23.87
2018-12-26T01:12:26.311Z,22.10
2018-12-26T01:14:55.789Z,22.17
2018-12-26T01:17:25.247Z,22.00
2018-12-26T01:19:55.091Z,21.73
2018-12-26T01:22:25.451Z,21.50
2018-12-26T01:24:54.958Z,21.27
2018-12-26T01:27:24.152Z,21.47
2018-12-26T01:29:53.651Z,21.43
2018-12-26T01:32:23.104Z,21.63
2018-12-26T01:34:52.588Z,23.13
2018-12-26T01:37:22.056Z,21.47
2018-12-26T01:39:51.925Z,20.47
2018-12-26T01:42:21.115Z,20.43
2018-12-26T01:44:50.697Z,21.00
2018-12-26T01:47:20.157Z,22.53
2018-12-26T01:49:49.633Z,21.43
2018-12-26T01:52:19.102Z,21.90
2018-12-26T01:54:48.702Z,20.50
2018-12-26T01:57:18.270Z,21.10
2018-12-26T01:59:47.758Z,19.93
2018-12-26T02:02:17.344Z,19.40
2018-12-26T02:04:46.575Z,19.67
2018-12-26T02:07:16.359Z,19.80
2018-12-26T02:09:46.121Z,20.07
2018-12-26T02:12:16.413Z,20.00
2018-12-26T02:14:45.886Z,20.67
2018-12-26T02:17:15.363Z,18.70
2018-12-26T02:19:44.941Z,19.37
2018-12-26T02:22:14.169Z,19.87
2018-12-26T02:24:43.683Z,18.43
2018-12-26T02:27:13.535Z,18.07
2018-12-26T02:29:43.012Z,17.73
2018-12-26T02:32:12.595Z,17.53
2018-12-26T02:34:42.340Z,17.17
2018-12-26T02:37:12.409Z,17.10
2018-12-26T02:39:41.609Z,18.30
2018-12-26T02:44:46.095Z,16.97
2018-12-26T02:47:15.880Z,16.97
2018-12-26T02:49:45.693Z,16.83
2018-12-26T02:52:14.898Z,18.47
2018-12-26T02:54:44.091Z,17.33
2018-12-26T02:57:13.830Z,17.27
2018-12-26T02:59:43.413Z,17.13
2018-12-26T03:02:12.920Z,17.13
2018-12-26T03:04:43.099Z,17.10
2018-12-26T03:07:12.728Z,18.13
2018-12-26T03:09:42.231Z,16.63
2018-12-26T03:12:11.718Z,17.90
2018-12-26T03:14:41.156Z,17.57
2018-12-26T03:17:10.656Z,17.30
2018-12-26T03:19:40.434Z,17.60
2018-12-26T03:22:09.642Z,21.42
2018-12-26T03:24:39.373Z,18.90
2018-12-26T03:27:08.620Z,17.63
2018-12-26T03:29:38.090Z,17.37
2018-12-26T03:32:07.333Z,15.57
2018-12-26T03:34:36.511Z,16.30
2018-12-26T03:37:06.552Z,17.27
2018-12-26T03:39:36.004Z,16.30
2018-12-26T03:42:05.337Z,17.00
2018-12-26T03:45:13.915Z,15.47
2018-12-26T03:48:22.521Z,15.07
2018-12-26T03:50:52.297Z,16.57
2018-12-26T03:53:21.885Z,16.87
2018-12-26T03:55:51.433Z,16.30
2018-12-26T03:58:20.926Z,14.73
2018-12-26T04:00:50.136Z,15.97
2018-12-26T04:03:19.952Z,15.00
2018-12-26T04:05:49.147Z,14.30
2018-12-26T04:08:19.638Z,14.93
2018-12-26T04:13:57.785Z,12.53
2018-12-26T04:16:26.981Z,13.07
2018-12-26T04:18:56.477Z,12.00
2018-12-26T04:21:26.147Z,11.17
2018-12-26T04:23:55.723Z,12.30
2018-12-26T04:26:25.476Z,10.93
2018-12-26T04:28:54.969Z,11.07
2018-12-26T04:31:24.151Z,10.77
2018-12-26T04:33:53.377Z,10.57
2018-12-26T04:36:23.011Z,10.47
2018-12-26T04:38:52.793Z,11.07
2018-12-26T04:41:22.658Z,11.70
2018-12-26T04:43:52.114Z,11.70
2018-12-26T04:46:21.886Z,11.20
2018-12-26T04:48:51.359Z,12.30
2018-12-26T04:51:20.816Z,11.73
2018-12-26T04:53:50.284Z,12.20
2018-12-26T04:56:19.771Z,11.27
2018-12-26T04:58:49.273Z,14.40
2018-12-26T05:01:19.009Z,14.03
2018-12-26T05:03:48.792Z,13.87
2018-12-26T05:06:18.269Z,13.60
2018-12-26T05:08:48.059Z,13.73
2018-12-26T05:11:17.642Z,15.13
2018-12-26T05:13:47.125Z,13.07
2018-12-26T05:16:16.612Z,14.47
2018-12-26T05:18:45.826Z,14.80
2018-12-26T05:21:15.022Z,14.83
2018-12-26T05:23:44.238Z,14.87
2018-12-26T05:26:13.444Z,14.10
2018-12-26T05:28:42.673Z,13.77
2018-12-26T05:31:11.850Z,14.87
2018-12-26T05:33:41.073Z,13.97
2018-12-26T05:36:10.265Z,14.40
2018-12-26T05:38:39.473Z,13.67
2018-12-26T05:41:08.661Z,14.17
2018-12-26T05:43:37.885Z,14.07
2018-12-26T05:46:07.376Z,14.03
2018-12-26T05:48:36.586Z,14.10
2018-12-26T05:51:06.101Z,15.93
2018-12-26T05:53:35.318Z,14.20
2018-12-26T05:56:04.509Z,14.73
2018-12-26T05:58:33.714Z,14.60
2018-12-26T06:01:02.912Z,15.13
2018-12-26T06:03:32.117Z,15.50
2018-12-26T06:06:01.323Z,15.90
2018-12-26T06:08:30.733Z,15.27
2018-12-26T06:10:59.919Z,16.00
2018-12-26T06:13:29.183Z,14.67
2018-12-26T06:15:58.407Z,15.57
2018-12-26T06:18:27.625Z,14.53
2018-12-26T06:20:56.845Z,13.00
2018-12-26T06:23:26.068Z,14.57
2018-12-26T06:25:55.293Z,14.00
2018-12-26T06:28:24.509Z,14.50
2018-12-26T06:30:53.711Z,14.43
2018-12-26T06:33:23.224Z,13.00
2018-12-26T06:35:52.435Z,11.93
2018-12-26T06:38:21.642Z,12.50
2018-12-26T06:40:50.835Z,12.40
2018-12-26T06:43:20.313Z,11.63
2018-12-26T06:45:49.498Z,12.53
2018-12-26T06:48:18.710Z,13.50
2018-12-26T06:50:47.916Z,14.00
2018-12-26T06:53:17.154Z,13.00
2018-12-26T06:55:46.365Z,13.47
2018-12-26T06:58:15.583Z,13.37
2018-12-26T07:00:44.767Z,12.73
2018-12-26T07:03:13.977Z,13.03
2018-12-26T07:05:43.164Z,14.10
2018-12-26T07:08:12.387Z,14.03
2018-12-26T07:10:41.568Z,14.27
2018-12-26T07:13:10.805Z,14.40
2018-12-26T07:15:39.985Z,13.80
2018-12-26T07:18:09.207Z,13.77
2018-12-26T07:20:38.423Z,15.07
2018-12-26T07:23:07.641Z,14.60
2018-12-26T07:25:36.890Z,15.17
2018-12-26T07:28:09.299Z,14.53
2018-12-26T07:30:56.092Z,15.27
2018-12-26T07:33:25.306Z,15.40
2018-12-26T07:36:13.493Z,16.10
2018-12-26T07:38:42.711Z,14.80
2018-12-26T07:41:11.902Z,16.13
2018-12-26T07:43:41.104Z,15.33
2018-12-26T07:46:10.299Z,16.23
2018-12-26T07:48:39.521Z,15.33
2018-12-26T07:51:08.718Z,15.30
2018-12-26T07:53:37.978Z,16.00
2018-12-26T07:56:07.191Z,15.80
2018-12-26T08:01:33.157Z,14.30
2018-12-26T08:04:02.374Z,15.20
2018-12-26T08:06:31.563Z,14.10
2018-12-26T08:09:00.768Z,14.77
2018-12-26T08:11:30.233Z,14.47
2018-12-26T08:13:59.448Z,14.47
2018-12-26T08:16:28.649Z,13.90
2018-12-26T08:18:57.850Z,13.17
2018-12-26T08:21:27.064Z,13.47
2018-12-26T08:23:56.539Z,13.03
2018-12-26T08:26:25.750Z,12.77
2018-12-26T08:28:54.957Z,12.73
2018-12-26T08:34:12.909Z,13.17
2018-12-26T08:36:42.095Z,12.80
2018-12-26T08:39:11.588Z,12.80
2018-12-26T08:41:40.803Z,11.70
2018-12-26T08:44:10.013Z,12.13
2018-12-26T08:46:39.500Z,11.50
2018-12-26T08:49:08.735Z,12.17
2018-12-26T08:51:37.926Z,13.00
2018-12-26T08:54:07.151Z,12.80
2018-12-26T08:56:36.348Z,12.23
2018-12-26T08:59:05.558Z,10.77
2018-12-26T09:01:35.009Z,10.47
2018-12-26T09:04:04.251Z,10.90
2018-12-26T09:06:33.437Z,9.93
2018-12-26T09:14:12.268Z,10.60
2018-12-26T09:16:41.479Z,11.13
2018-12-26T09:19:10.698Z,11.07
2018-12-26T09:21:39.906Z,11.17
2018-12-26T09:24:09.121Z,11.03
2018-12-26T09:26:39.843Z,10.03
2018-12-26T09:29:09.070Z,11.37
2018-12-26T09:31:38.266Z,11.30
2018-12-26T09:34:07.987Z,12.07
2018-12-26T09:36:37.486Z,10.67
2018-12-26T09:39:08.054Z,10.50
2018-12-26T09:41:37.271Z,11.00
2018-12-26T09:44:06.453Z,11.10
2018-12-26T09:46:36.086Z,12.13
2018-12-26T09:49:05.285Z,11.47
2018-12-26T09:51:34.511Z,11.60
2018-12-26T09:54:03.698Z,11.23
2018-12-26T09:56:32.916Z,11.47
2018-12-26T09:59:02.112Z,11.63
2018-12-26T10:01:31.354Z,10.97
2018-12-26T10:04:00.547Z,11.57
2018-12-26T10:06:29.762Z,11.17
2018-12-26T10:08:59.217Z,11.37
2018-12-26T10:11:28.699Z,10.73
2018-12-26T10:13:57.893Z,12.37
2018-12-26T10:16:27.150Z,12.70
2018-12-26T10:18:56.343Z,10.67
2018-12-26T10:21:25.563Z,10.93
2018-12-26T10:24:13.778Z,10.97
2018-12-26T10:26:43.288Z,10.67
2018-12-26T10:29:12.746Z,10.60
2018-12-26T10:31:42.228Z,10.67
2018-12-26T10:34:11.427Z,10.37
2018-12-26T10:36:40.642Z,10.50
2018-12-26T10:39:09.837Z,11.40
2018-12-26T10:41:39.078Z,10.00
2018-12-26T10:44:08.259Z,10.43
2018-12-26T10:46:37.463Z,10.93
2018-12-26T10:49:06.653Z,10.13
2018-12-26T10:51:35.860Z,9.30
2018-12-26T10:54:05.045Z,10.00
2018-12-26T10:56:34.245Z,9.80
2018-12-26T10:59:09.967Z,9.97
2018-12-26T11:01:34.964Z,10.43
2018-12-26T11:04:04.161Z,10.53
2018-12-26T11:06:33.487Z,10.93
2018-12-26T11:09:02.933Z,11.40
2018-12-26T11:11:32.413Z,11.10
2018-12-26T11:14:01.623Z,11.67
2018-12-26T11:16:30.964Z,11.10
2018-12-26T11:19:00.590Z,10.23
2018-12-26T11:21:30.046Z,10.17
2018-12-26T11:23:59.252Z,10.40
2018-12-26T11:26:28.585Z,10.57
2018-12-26T11:28:58.025Z,10.47
2018-12-26T11:31:27.211Z,10.17
2018-12-26T11:33:56.806Z,9.67
2018-12-26T11:36:26.000Z,9.40
2018-12-26T11:38:55.322Z,9.13
2018-12-26T11:41:24.525Z,9.90
2018-12-26T11:43:53.949Z,8.60
2018-12-26T11:46:23.155Z,8.27
2018-12-26T11:48:52.670Z,7.53
2018-12-26T11:51:22.227Z,8.00
2018-12-26T11:53:51.693Z,7.10
2018-12-26T11:56:20.884Z,7.23
2018-12-26T11:58:50.103Z,7.57
2018-12-26T12:01:19.285Z,7.20
2018-12-26T12:03:48.503Z,7.40
2018-12-26T12:06:17.699Z,8.93
2018-12-26T12:08:47.208Z,9.03
2018-12-26T12:11:16.402Z,8.63
2018-12-26T12:13:45.884Z,9.07
2018-12-26T12:16:15.074Z,8.33
2018-12-26T12:18:44.368Z,7.80
2018-12-26T12:21:13.804Z,7.17
2018-12-26T12:23:43.295Z,6.33
2018-12-26T12:26:12.526Z,6.23
2018-12-26T12:28:41.725Z,6.40
2018-12-26T12:31:11.453Z,6.03
2018-12-26T12:33:41.004Z,6.60
2018-12-26T12:36:12.973Z,5.90
2018-12-26T12:38:42.112Z,6.13
2018-12-26T12:41:11.314Z,6.47
2018-12-26T12:43:40.500Z,6.47
2018-12-26T12:46:09.804Z,5.90
2018-12-26T12:48:38.985Z,5.97
2018-12-26T12:51:08.186Z,6.50
2018-12-26T12:53:37.382Z,6.10
2018-12-26T12:56:11.754Z,5.83
2018-12-26T12:58:37.700Z,5.77
2018-12-26T13:01:07.167Z,5.77
2018-12-26T13:03:36.621Z,5.70
2018-12-26T13:06:05.806Z,5.13
2018-12-26T13:08:34.990Z,5.47
2018-12-26T13:11:04.576Z,5.20
2018-12-26T13:13:33.867Z,5.00
2018-12-26T13:16:03.094Z,5.40
2018-12-26T13:18:32.287Z,5.40
2018-12-26T13:21:01.488Z,5.23
2018-12-26T13:23:30.925Z,5.37
2018-12-26T13:26:00.419Z,5.03
2018-12-26T13:28:29.606Z,5.47
2018-12-26T13:31:04.983Z,5.57
2018-12-26T13:36:21.022Z,5.40
2018-12-26T13:38:50.200Z,5.60
2018-12-26T13:41:19.411Z,5.47
2018-12-26T13:43:48.596Z,5.87
2018-12-26T13:46:17.803Z,5.57
2018-12-26T13:48:46.984Z,5.87
2018-12-26T13:51:16.475Z,5.13
2018-12-26T13:53:45.652Z,4.83
2018-12-26T13:56:14.866Z,5.30
2018-12-26T13:58:44.050Z,5.40
2018-12-26T14:01:13.249Z,5.23
2018-12-26T14:03:42.698Z,5.80
2018-12-26T14:06:11.906Z,6.50
2018-12-26T14:08:41.094Z,6.23
2018-12-26T14:11:10.334Z,5.97
2018-12-26T14:13:39.509Z,5.13
2018-12-26T14:16:08.736Z,5.87
2018-12-26T14:18:38.243Z,5.47
2018-12-26T14:21:07.469Z,5.47
2018-12-26T14:23:36.936Z,5.30
2018-12-26T14:26:06.419Z,5.80
2018-12-26T14:28:35.627Z,5.97
2018-12-26T14:31:04.838Z,5.90
2018-12-26T14:33:34.069Z,6.03
2018-12-26T14:36:03.518Z,6.17
2018-12-26T14:38:32.758Z,5.93
2018-12-26T14:41:02.245Z,5.97
2018-12-26T14:43:31.494Z,6.20
2018-12-26T14:46:00.698Z,6.43
2018-12-26T14:48:29.924Z,6.43
2018-12-26T14:50:59.118Z,6.93
2018-12-26T14:53:28.339Z,7.00
2018-12-26T14:55:57.518Z,6.13
2018-12-26T14:58:26.842Z,5.97
2018-12-26T15:00:56.286Z,6.60
2018-12-26T15:03:25.529Z,6.57
2018-12-26T15:05:54.993Z,6.43
2018-12-26T15:08:24.184Z,6.63
2018-12-26T15:10:53.636Z,6.77
2018-12-26T15:13:22.829Z,6.83
2018-12-26T15:15:52.022Z,6.33
2018-12-26T15:18:21.271Z,7.47
2018-12-26T15:20:50.491Z,6.73
2018-12-26T15:23:19.813Z,6.90
2018-12-26T15:25:49.031Z,7.03
2018-12-26T15:28:18.227Z,7.13
2018-12-26T15:30:47.402Z,7.20
2018-12-26T15:33:16.607Z,7.40
2018-12-26T15:35:45.791Z,7.40
2018-12-26T15:38:15.261Z,7.60
2018-12-26T15:40:44.455Z,7.43
2018-12-26T15:43:13.681Z,8.20
2018-12-26T15:45:42.879Z,8.30
2018-12-26T15:48:12.110Z,7.10
2018-12-26T15:50:41.558Z,7.40
2018-12-26T15:53:10.776Z,7.87
2018-12-26T15:55:39.985Z,8.33
2018-12-26T15:58:09.224Z,8.20
2018-12-26T16:00:38.420Z,7.43
2018-12-26T16:03:07.621Z,8.43
2018-12-26T16:05:37.146Z,8.90
2018-12-26T16:08:06.360Z,7.90
2018-12-26T16:10:35.570Z,8.13
2018-12-26T16:13:05.384Z,8.93
2018-12-26T16:15:34.599Z,8.43
2018-12-26T16:18:03.789Z,7.27
2018-12-26T16:20:33.341Z,8.40
2018-12-26T16:23:02.562Z,7.70
2018-12-26T16:25:31.764Z,7.87
2018-12-26T16:28:01.022Z,7.80
2018-12-26T16:30:30.219Z,8.50
2018-12-26T16:32:59.413Z,7.90
2018-12-26T16:35:29.172Z,8.77
2018-12-26T16:38:01.599Z,7.97
2018-12-26T16:40:29.383Z,8.90
2018-12-26T16:42:58.574Z,9.20
2018-12-26T16:45:27.780Z,8.67
2018-12-26T16:47:56.973Z,9.07
2018-12-26T16:50:45.259Z,9.07
2018-12-26T16:53:14.451Z,8.10
2018-12-26T16:56:02.595Z,8.43
2018-12-26T16:58:31.801Z,10.07
2018-12-26T17:01:01.309Z,10.30
2018-12-26T17:03:32.782Z,9.73
2018-12-26T17:06:02.011Z,10.37
2018-12-26T17:08:31.202Z,9.90
2018-12-26T17:11:00.410Z,11.90
2018-12-26T17:13:29.624Z,14.07
2018-12-26T17:15:58.871Z,15.70
2018-12-26T17:18:28.079Z,12.87
2018-12-26T17:20:57.296Z,11.63
2018-12-26T17:23:26.525Z,10.87
2018-12-26T17:25:55.737Z,10.33
2018-12-26T17:28:24.961Z,10.93
2018-12-26T17:30:54.228Z,9.73
2018-12-26T17:33:23.688Z,10.70
2018-12-26T17:35:53.184Z,13.97
2018-12-26T17:38:22.372Z,19.43
2018-12-26T17:40:58.813Z,19.30
2018-12-26T17:43:27.994Z,13.10
2018-12-26T17:45:57.209Z,14.43
2018-12-26T17:48:26.402Z,15.60
2018-12-26T17:50:55.719Z,11.50
2018-12-26T17:54:02.951Z,12.00
2018-12-26T17:57:10.211Z,11.23
2018-12-26T18:00:04.560Z,14.87
2018-12-26T18:02:40.696Z,13.50
2018-12-26T18:05:09.884Z,11.57
2018-12-26T18:07:39.106Z,11.07
2018-12-26T18:10:09.724Z,13.17
2018-12-26T18:12:38.956Z,11.80
2018-12-26T18:15:10.718Z,12.80
2018-12-26T18:17:40.054Z,12.13
2018-12-26T18:20:10.753Z,12.23
2018-12-26T18:22:40.002Z,12.07
2018-12-26T18:25:09.307Z,13.30
2018-12-26T18:27:38.812Z,15.10
2018-12-26T18:30:11.698Z,12.40
2018-12-26T18:32:41.042Z,14.10
2018-12-26T18:35:11.189Z,13.30
2018-12-26T18:37:40.674Z,15.63
2018-12-26T18:40:09.917Z,16.33
2018-12-26T18:42:39.428Z,13.87
2018-12-26T18:45:09.449Z,13.10
2018-12-26T18:47:39.205Z,13.10
2018-12-26T18:50:10.710Z,12.83
2018-12-26T18:52:40.174Z,12.97
2018-12-26T18:55:09.798Z,13.67
2018-12-26T18:57:38.992Z,12.83
2018-12-26T19:00:11.434Z,12.50
2018-12-26T19:02:40.943Z,12.37
2018-12-26T19:05:11.454Z,13.10
2018-12-26T19:07:41.221Z,13.13
2018-12-26T19:10:11.407Z,13.07
2018-12-26T19:12:40.977Z,12.53
2018-12-26T19:15:10.464Z,12.00
2018-12-26T19:17:39.666Z,13.60
2018-12-26T19:20:10.592Z,11.73
2018-12-26T19:22:39.791Z,12.13
2018-12-26T19:25:09.020Z,11.50
2018-12-26T19:27:38.509Z,12.13
2018-12-26T19:30:11.125Z,11.77
2018-12-26T19:32:40.596Z,12.00
2018-12-26T19:35:28.892Z,13.20
2018-12-26T19:37:58.346Z,13.77
2018-12-26T19:40:27.566Z,14.47
2018-12-26T19:42:57.039Z,13.47
2018-12-26T19:45:26.547Z,13.67
2018-12-26T19:47:56.081Z,14.30
2018-12-26T19:50:25.616Z,14.80
2018-12-26T19:52:55.109Z,13.47
2018-12-26T19:55:24.866Z,15.33
2018-12-26T19:57:54.099Z,14.27
2018-12-26T20:00:42.675Z,13.73
2018-12-26T20:03:11.864Z,13.90
2018-12-26T20:08:15.575Z,13.70
2018-12-26T20:10:44.821Z,13.20
2018-12-26T20:13:14.053Z,12.77
2018-12-26T20:15:43.575Z,14.57
2018-12-26T20:18:12.777Z,12.57
2018-12-26T20:20:42.057Z,12.07
2018-12-26T20:23:11.651Z,11.40
2018-12-26T20:25:41.211Z,12.40
2018-12-26T20:28:10.452Z,11.80
2018-12-26T20:30:39.763Z,11.97
2018-12-26T20:33:09.088Z,12.20
2018-12-26T20:35:38.391Z,11.93
2018-12-26T20:38:07.613Z,12.50
2018-12-26T20:40:36.884Z,11.83
2018-12-26T20:43:06.096Z,12.30
2018-12-26T20:45:35.357Z,11.77
2018-12-26T20:48:04.931Z,11.50
2018-12-26T20:50:34.209Z,12.13
2018-12-26T20:53:03.395Z,11.90
2018-12-26T20:55:32.683Z,11.17
2018-12-26T20:58:01.967Z,11.73
2018-12-26T21:00:31.365Z,11.93
2018-12-26T21:03:00.941Z,10.93
2018-12-26T21:05:31.606Z,11.60
2018-12-26T21:08:01.208Z,11.70
2018-12-26T21:10:30.490Z,11.13
2018-12-26T21:12:59.758Z,11.93
2018-12-26T21:15:29.235Z,11.53
2018-12-26T21:18:18.283Z,11.80
2018-12-26T21:20:49.485Z,11.30
2018-12-26T21:23:18.511Z,12.47
2018-12-26T21:25:48.423Z,12.20
2018-12-26T21:28:17.663Z,11.37
2018-12-26T21:30:47.430Z,10.30
2018-12-26T21:33:17.052Z,11.33
2018-12-26T21:36:05.317Z,10.70
2018-12-26T21:38:34.549Z,11.33
2018-12-26T21:41:03.737Z,10.80
2018-12-26T21:43:33.270Z,10.27
2018-12-26T21:46:02.599Z,10.27
2018-12-26T21:48:32.335Z,9.83
2018-12-26T21:51:01.529Z,10.10
2018-12-26T21:53:31.015Z,10.47
2018-12-26T21:56:00.210Z,10.60
2018-12-26T21:58:29.459Z,10.63
2018-12-26T22:00:59.373Z,9.80
2018-12-26T22:03:28.531Z,10.37
2018-12-26T22:05:58.610Z,9.47
2018-12-26T22:08:27.846Z,9.73
2018-12-26T22:10:57.055Z,9.97
2018-12-26T22:13:26.280Z,10.03
2018-12-26T22:15:55.469Z,9.73
2018-12-26T22:18:24.695Z,10.43
2018-12-26T22:20:53.925Z,10.17
2018-12-26T22:23:42.342Z,9.90
2018-12-26T22:26:11.525Z,10.10
2018-12-26T22:28:40.773Z,10.20
2018-12-26T22:31:09.970Z,9.03
2018-12-26T22:33:39.584Z,9.77
2018-12-26T22:36:08.739Z,10.07
2018-12-26T22:38:56.950Z,9.37
2018-12-26T22:41:26.143Z,9.30
2018-12-26T22:46:30.263Z,9.37
2018-12-26T22:48:59.496Z,9.60
2018-12-26T22:51:28.751Z,9.00
2018-12-26T22:53:57.970Z,10.00
2018-12-26T22:56:27.165Z,9.03
2018-12-26T22:58:56.755Z,10.10
2018-12-26T23:01:26.018Z,9.60
2018-12-26T23:03:55.276Z,9.30
2018-12-26T23:06:24.466Z,10.23
2018-12-26T23:08:53.689Z,8.63
2018-12-26T23:11:22.886Z,9.60
2018-12-26T23:13:52.375Z,9.53
2018-12-26T23:16:21.711Z,9.20
2018-12-26T23:18:50.926Z,10.03
2018-12-26T23:21:20.116Z,9.83
2018-12-26T23:23:49.697Z,9.50
2018-12-26T23:26:19.219Z,9.43
2018-12-26T23:28:48.538Z,10.17
2018-12-26T23:31:17.667Z,9.87
2018-12-26T23:33:46.885Z,9.63
2018-12-26T23:36:16.366Z,9.33
2018-12-26T23:38:45.918Z,8.67
2018-12-26T23:41:15.130Z,9.37
2018-12-26T23:43:44.388Z,9.50
2018-12-26T23:46:13.586Z,9.07
2018-12-26T23:48:43.115Z,9.57
2018-12-26T23:51:12.310Z,10.47
2018-12-26T23:53:41.511Z,9.80
2018-12-26T23:56:10.729Z,10.47
2018-12-26T23:58:39.921Z,9.73
